sensor_id;sensor_type;location;lat;lon;timestamp;P1;durP1;ratioP1;P2;durP2;ratioP2
286;SDS011;127;48.770;9.212;2022-07-06T00:02:29;9.13;;;2.73;;
286;SDS011;127;48.770;9.212;2022-07-06T00:04:58;3.30;;;2.70;;
286;SDS011;127;48.770;9.212;2022-07-06T00:07:26;5.17;;;3.07;;
286;SDS011;127;48.770;9.212;2022-07-06T00:09:55;5.70;;;3.23;;
286;SDS011;127;48.770;9.212;2022-07-06T00:12:24;7.03;;;3.40;;
286;SDS011;127;48.770;9.212;2022-07-06T00:14:52;7.63;;;3.33;;
286;SDS011;127;48.770;9.212;2022-07-06T00:17:21;8.40;;;3.50;;
286;SDS011;127;48.770;9.212;2022-07-06T00:19:52;3.73;;;3.10;;
286;SDS011;127;48.770;9.212;2022-07-06T00:22:21;5.17;;;3.23;;
286;SDS011;127;48.770;9.212;2022-07-06T00:24:50;11.63;;;3.97;;
286;SDS011;127;48.770;9.212;2022-07-06T00:27:18;10.83;;;3.20;;
286;SDS011;127;48.770;9.212;2022-07-06T00:29:47;7.70;;;2.80;;
286;SDS011;127;48.770;9.212;2022-07-06T00:32:15;6.73;;;3.47;;
286;SDS011;127;48.770;9.212;2022-07-06T00:34:44;6.90;;;3.07;;
286;SDS011;127;48.770;9.212;2022-07-06T00:37:15;3.63;;;2.93;;
286;SDS011;127;48.770;9.212;2022-07-06T00:39:44;8.27;;;3.30;;
286;SDS011;127;48.770;9.212;2022-07-06T00:42:13;5.17;;;3.00;;
286;SDS011;127;48.770;9.212;2022-07-06T00:44:41;5.50;;;3.47;;
286;SDS011;127;48.770;9.212;2022-07-06T00:47:10;3.67;;;2.80;;
286;SDS011;127;48.770;9.212;2022-07-06T00:49:38;5.97;;;3.03;;
286;SDS011;127;48.770;9.212;2022-07-06T00:52:22;3.53;;;3.13;;
286;SDS011;127;48.770;9.212;2022-07-06T00:54:51;8.83;;;3.20;;
286;SDS011;127;48.770;9.212;2022-07-06T00:57:20;5.20;;;3.23;;
286;SDS011;127;48.770;9.212;2022-07-06T00:59:49;5.40;;;3.20;;
286;SDS011;127;48.770;9.212;2022-07-06T01:02:18;7.43;;;3.43;;
286;SDS011;127;48.770;9.212;2022-07-06T01:04:47;5.70;;;3.20;;
286;SDS011;127;48.770;9.212;2022-07-06T01:07:16;6.90;;;3.83;;
286;SDS011;127;48.770;9.212;2022-07-06T01:09:47;5.93;;;3.20;;
286;SDS011;127;48.770;9.212;2022-07-06T01:12:16;5.87;;;4.03;;
286;SDS011;127;48.770;9.212;2022-07-06T01:14:45;3.90;;;3.20;;
286;SDS011;127;48.770;9.212;2022-07-06T01:17:14;7.03;;;3.60;;
286;SDS011;127;48.770;9.212;2022-07-06T01:19:43;6.20;;;3.10;;
286;SDS011;127;48.770;9.212;2022-07-06T01:22:14;7.50;;;3.20;;
286;SDS011;127;48.770;9.212;2022-07-06T01:24:44;6.57;;;3.33;;
286;SDS011;127;48.770;9.212;2022-07-06T01:27:12;6.70;;;2.80;;
286;SDS011;127;48.770;9.212;2022-07-06T01:29:41;5.50;;;2.73;;
286;SDS011;127;48.770;9.212;2022-07-06T01:32:10;8.73;;;3.70;;
286;SDS011;127;48.770;9.212;2022-07-06T01:34:39;6.73;;;3.20;;
286;SDS011;127;48.770;9.212;2022-07-06T01:37:09;6.13;;;3.20;;
286;SDS011;127;48.770;9.212;2022-07-06T01:39:40;6.90;;;3.13;;
286;SDS011;127;48.770;9.212;2022-07-06T01:42:08;8.30;;;3.37;;
286;SDS011;127;48.770;9.212;2022-07-06T01:44:37;9.03;;;3.47;;
286;SDS011;127;48.770;9.212;2022-07-06T01:47:06;6.53;;;3.33;;
286;SDS011;127;48.770;9.212;2022-07-06T01:49:34;7.43;;;3.37;;
286;SDS011;127;48.770;9.212;2022-07-06T01:52:03;6.53;;;3.30;;
286;SDS011;127;48.770;9.212;2022-07-06T01:54:32;8.30;;;3.20;;
286;SDS011;127;48.770;9.212;2022-07-06T01:57:04;5.97;;;3.17;;
286;SDS011;127;48.770;9.212;2022-07-06T01:59:33;8.10;;;3.80;;
286;SDS011;127;48.770;9.212;2022-07-06T02:02:02;5.23;;;2.83;;
286;SDS011;127;48.770;9.212;2022-07-06T02:04:31;6.90;;;2.80;;
286;SDS011;127;48.770;9.212;2022-07-06T02:06:59;7.43;;;3.47;;
286;SDS011;127;48.770;9.212;2022-07-06T02:09:28;6.23;;;3.83;;
286;SDS011;127;48.770;9.212;2022-07-06T02:11:57;6.07;;;2.50;;
286;SDS011;127;48.770;9.212;2022-07-06T02:14:28;8.83;;;3.30;;
286;SDS011;127;48.770;9.212;2022-07-06T02:16:57;12.93;;;3.30;;
286;SDS011;127;48.770;9.212;2022-07-06T02:19:25;5.33;;;2.90;;
286;SDS011;127;48.770;9.212;2022-07-06T02:21:54;7.13;;;3.00;;
286;SDS011;127;48.770;9.212;2022-07-06T02:24:23;7.40;;;2.90;;
286;SDS011;127;48.770;9.212;2022-07-06T02:26:51;3.80;;;3.10;;
286;SDS011;127;48.770;9.212;2022-07-06T02:29:20;5.33;;;3.50;;
286;SDS011;127;48.770;9.212;2022-07-06T02:31:51;7.23;;;3.87;;
286;SDS011;127;48.770;9.212;2022-07-06T02:34:20;6.10;;;3.67;;
286;SDS011;127;48.770;9.212;2022-07-06T02:36:49;7.53;;;3.43;;
286;SDS011;127;48.770;9.212;2022-07-06T02:39:17;5.60;;;3.33;;
286;SDS011;127;48.770;9.212;2022-07-06T02:41:46;7.23;;;3.50;;
286;SDS011;127;48.770;9.212;2022-07-06T02:44:15;4.57;;;3.80;;
286;SDS011;127;48.770;9.212;2022-07-06T02:46:43;6.67;;;3.30;;
286;SDS011;127;48.770;9.212;2022-07-06T02:49:15;9.73;;;3.87;;
286;SDS011;127;48.770;9.212;2022-07-06T02:51:43;4.77;;;3.30;;
286;SDS011;127;48.770;9.212;2022-07-06T02:54:12;7.10;;;3.00;;
286;SDS011;127;48.770;9.212;2022-07-06T02:56:41;7.80;;;4.00;;
286;SDS011;127;48.770;9.212;2022-07-06T02:59:10;8.57;;;3.57;;
286;SDS011;127;48.770;9.212;2022-07-06T03:01:38;9.87;;;4.60;;
286;SDS011;127;48.770;9.212;2022-07-06T03:04:07;6.33;;;3.60;;
286;SDS011;127;48.770;9.212;2022-07-06T03:06:38;6.87;;;3.70;;
286;SDS011;127;48.770;9.212;2022-07-06T03:09:07;8.10;;;3.73;;
286;SDS011;127;48.770;9.212;2022-07-06T03:11:35;6.43;;;3.57;;
286;SDS011;127;48.770;9.212;2022-07-06T03:14:04;20.63;;;4.00;;
286;SDS011;127;48.770;9.212;2022-07-06T03:16:33;5.47;;;3.93;;
286;SDS011;127;48.770;9.212;2022-07-06T03:19:02;7.50;;;3.47;;
286;SDS011;127;48.770;9.212;2022-07-06T03:21:30;10.43;;;3.70;;
286;SDS011;127;48.770;9.212;2022-07-06T03:24:02;5.57;;;4.13;;
286;SDS011;127;48.770;9.212;2022-07-06T03:26:31;7.63;;;4.10;;
286;SDS011;127;48.770;9.212;2022-07-06T03:29:00;7.17;;;4.30;;
286;SDS011;127;48.770;9.212;2022-07-06T03:31:28;7.00;;;3.53;;
286;SDS011;127;48.770;9.212;2022-07-06T03:33:57;8.00;;;3.33;;
286;SDS011;127;48.770;9.212;2022-07-06T03:36:26;8.93;;;3.73;;
286;SDS011;127;48.770;9.212;2022-07-06T03:38:54;12.73;;;4.30;;
286;SDS011;127;48.770;9.212;2022-07-06T03:41:26;7.90;;;3.87;;
286;SDS011;127;48.770;9.212;2022-07-06T03:43:54;10.60;;;3.85;;
286;SDS011;127;48.770;9.212;2022-07-06T03:46:23;3.97;;;3.30;;
286;SDS011;127;48.770;9.212;2022-07-06T03:48:52;4.23;;;3.80;;
286;SDS011;127;48.770;9.212;2022-07-06T03:51:20;5.87;;;4.53;;
286;SDS011;127;48.770;9.212;2022-07-06T03:53:49;6.30;;;3.40;;
286;SDS011;127;48.770;9.212;2022-07-06T03:56:18;5.17;;;3.63;;
286;SDS011;127;48.770;9.212;2022-07-06T03:59:02;5.00;;;4.33;;
286;SDS011;127;48.770;9.212;2022-07-06T04:01:31;6.70;;;3.73;;
286;SDS011;127;48.770;9.212;2022-07-06T04:03:59;5.53;;;4.00;;
286;SDS011;127;48.770;9.212;2022-07-06T04:06:28;9.20;;;4.07;;
286;SDS011;127;48.770;9.212;2022-07-06T04:08:59;7.10;;;4.10;;
286;SDS011;127;48.770;9.212;2022-07-06T04:11:28;7.03;;;4.17;;
286;SDS011;127;48.770;9.212;2022-07-06T04:13:57;5.60;;;3.90;;
286;SDS011;127;48.770;9.212;2022-07-06T04:16:28;6.50;;;4.10;;
286;SDS011;127;48.770;9.212;2022-07-06T04:18:57;8.43;;;3.90;;
286;SDS011;127;48.770;9.212;2022-07-06T04:21:25;10.40;;;4.80;;
286;SDS011;127;48.770;9.212;2022-07-06T04:23:54;7.20;;;4.00;;
286;SDS011;127;48.770;9.212;2022-07-06T04:26:22;7.80;;;3.87;;
286;SDS011;127;48.770;9.212;2022-07-06T04:28:51;6.80;;;4.50;;
286;SDS011;127;48.770;9.212;2022-07-06T04:31:22;5.73;;;4.33;;
286;SDS011;127;48.770;9.212;2022-07-06T04:33:51;5.27;;;4.10;;
286;SDS011;127;48.770;9.212;2022-07-06T04:36:20;5.80;;;4.63;;
286;SDS011;127;48.770;9.212;2022-07-06T04:38:50;9.77;;;4.77;;
286;SDS011;127;48.770;9.212;2022-07-06T04:41:19;7.00;;;4.93;;
286;SDS011;127;48.770;9.212;2022-07-06T04:43:48;6.60;;;4.23;;
286;SDS011;127;48.770;9.212;2022-07-06T04:46:16;5.47;;;4.60;;
286;SDS011;127;48.770;9.212;2022-07-06T04:48:48;7.20;;;4.70;;
286;SDS011;127;48.770;9.212;2022-07-06T04:51:16;6.87;;;5.30;;
286;SDS011;127;48.770;9.212;2022-07-06T04:53:45;15.60;;;5.10;;
286;SDS011;127;48.770;9.212;2022-07-06T04:56:13;8.10;;;4.97;;
286;SDS011;127;48.770;9.212;2022-07-06T04:58:42;8.20;;;5.20;;
286;SDS011;127;48.770;9.212;2022-07-06T05:01:11;11.27;;;5.97;;
286;SDS011;127;48.770;9.212;2022-07-06T05:03:39;9.00;;;5.63;;
286;SDS011;127;48.770;9.212;2022-07-06T05:06:11;10.53;;;5.50;;
286;SDS011;127;48.770;9.212;2022-07-06T05:08:40;11.10;;;5.60;;
286;SDS011;127;48.770;9.212;2022-07-06T05:11:09;6.17;;;5.50;;
286;SDS011;127;48.770;9.212;2022-07-06T05:13:37;9.97;;;5.37;;
286;SDS011;127;48.770;9.212;2022-07-06T05:16:06;11.60;;;6.17;;
286;SDS011;127;48.770;9.212;2022-07-06T05:18:35;10.47;;;6.23;;
286;SDS011;127;48.770;9.212;2022-07-06T05:21:04;11.23;;;6.00;;
286;SDS011;127;48.770;9.212;2022-07-06T05:23:35;10.50;;;5.60;;
286;SDS011;127;48.770;9.212;2022-07-06T05:26:04;11.20;;;4.93;;
286;SDS011;127;48.770;9.212;2022-07-06T05:28:33;10.43;;;5.30;;
286;SDS011;127;48.770;9.212;2022-07-06T05:31:01;9.40;;;5.57;;
286;SDS011;127;48.770;9.212;2022-07-06T05:33:30;7.43;;;5.63;;
286;SDS011;127;48.770;9.212;2022-07-06T05:35:59;7.10;;;4.90;;
286;SDS011;127;48.770;9.212;2022-07-06T05:38:28;8.93;;;5.27;;
286;SDS011;127;48.770;9.212;2022-07-06T05:41:02;10.80;;;5.10;;
286;SDS011;127;48.770;9.212;2022-07-06T05:43:31;5.70;;;5.07;;
286;SDS011;127;48.770;9.212;2022-07-06T05:45:59;12.27;;;5.50;;
286;SDS011;127;48.770;9.212;2022-07-06T05:48:28;11.17;;;5.17;;
286;SDS011;127;48.770;9.212;2022-07-06T05:51:09;9.33;;;5.10;;
286;SDS011;127;48.770;9.212;2022-07-06T05:53:38;11.80;;;4.80;;
286;SDS011;127;48.770;9.212;2022-07-06T05:56:09;8.30;;;6.17;;
286;SDS011;127;48.770;9.212;2022-07-06T05:58:38;7.50;;;4.33;;
286;SDS011;127;48.770;9.212;2022-07-06T06:01:07;8.07;;;5.03;;
286;SDS011;127;48.770;9.212;2022-07-06T06:03:35;11.20;;;5.10;;
286;SDS011;127;48.770;9.212;2022-07-06T06:06:04;9.60;;;4.83;;
286;SDS011;127;48.770;9.212;2022-07-06T06:08:33;11.70;;;5.40;;
286;SDS011;127;48.770;9.212;2022-07-06T06:11:02;9.80;;;4.60;;
286;SDS011;127;48.770;9.212;2022-07-06T06:13:33;8.43;;;4.80;;
286;SDS011;127;48.770;9.212;2022-07-06T06:16:02;9.97;;;4.80;;
286;SDS011;127;48.770;9.212;2022-07-06T06:18:31;11.80;;;5.13;;
286;SDS011;127;48.770;9.212;2022-07-06T06:21:00;11.40;;;5.83;;
286;SDS011;127;48.770;9.212;2022-07-06T06:23:29;8.70;;;5.30;;
286;SDS011;127;48.770;9.212;2022-07-06T06:25:57;6.03;;;4.60;;
286;SDS011;127;48.770;9.212;2022-07-06T06:28:26;10.10;;;4.50;;
286;SDS011;127;48.770;9.212;2022-07-06T06:30:57;11.40;;;5.63;;
286;SDS011;127;48.770;9.212;2022-07-06T06:33:26;11.50;;;5.20;;
286;SDS011;127;48.770;9.212;2022-07-06T06:35:55;5.97;;;4.10;;
286;SDS011;127;48.770;9.212;2022-07-06T06:38:23;7.37;;;4.33;;
286;SDS011;127;48.770;9.212;2022-07-06T06:40:54;6.10;;;4.30;;
286;SDS011;127;48.770;9.212;2022-07-06T06:43:23;7.80;;;4.50;;
286;SDS011;127;48.770;9.212;2022-07-06T06:45:52;11.53;;;4.27;;
286;SDS011;127;48.770;9.212;2022-07-06T06:48:23;15.27;;;4.83;;
286;SDS011;127;48.770;9.212;2022-07-06T06:50:52;9.00;;;4.30;;
286;SDS011;127;48.770;9.212;2022-07-06T06:53:20;7.53;;;4.57;;
286;SDS011;127;48.770;9.212;2022-07-06T06:55:49;5.20;;;4.20;;
286;SDS011;127;48.770;9.212;2022-07-06T06:58:18;10.73;;;4.47;;
286;SDS011;127;48.770;9.212;2022-07-06T07:00:46;7.73;;;4.23;;
286;SDS011;127;48.770;9.212;2022-07-06T07:03:16;7.60;;;4.03;;
286;SDS011;127;48.770;9.212;2022-07-06T07:05:47;5.53;;;3.80;;
286;SDS011;127;48.770;9.212;2022-07-06T07:08:16;5.93;;;3.80;;
286;SDS011;127;48.770;9.212;2022-07-06T07:10:45;5.30;;;4.10;;
286;SDS011;127;48.770;9.212;2022-07-06T07:13:13;8.20;;;4.10;;
286;SDS011;127;48.770;9.212;2022-07-06T07:15:42;11.27;;;4.47;;
286;SDS011;127;48.770;9.212;2022-07-06T07:18:11;7.77;;;4.47;;
286;SDS011;127;48.770;9.212;2022-07-06T07:20:40;6.93;;;4.17;;
286;SDS011;127;48.770;9.212;2022-07-06T07:23:11;6.70;;;4.30;;
286;SDS011;127;48.770;9.212;2022-07-06T07:25:40;6.60;;;4.30;;
286;SDS011;127;48.770;9.212;2022-07-06T07:28:08;7.20;;;4.40;;
286;SDS011;127;48.770;9.212;2022-07-06T07:30:37;10.97;;;4.97;;
286;SDS011;127;48.770;9.212;2022-07-06T07:33:06;10.07;;;4.90;;
286;SDS011;127;48.770;9.212;2022-07-06T07:35:34;10.20;;;4.43;;
286;SDS011;127;48.770;9.212;2022-07-06T07:38:03;5.70;;;4.30;;
286;SDS011;127;48.770;9.212;2022-07-06T07:40:35;7.13;;;4.13;;
286;SDS011;127;48.770;9.212;2022-07-06T07:43:03;9.33;;;4.23;;
286;SDS011;127;48.770;9.212;2022-07-06T07:45:32;8.17;;;4.00;;
286;SDS011;127;48.770;9.212;2022-07-06T07:48:01;15.50;;;5.03;;
286;SDS011;127;48.770;9.212;2022-07-06T07:50:29;8.37;;;4.60;;
286;SDS011;127;48.770;9.212;2022-07-06T07:53:00;11.17;;;3.90;;
286;SDS011;127;48.770;9.212;2022-07-06T07:55:28;13.60;;;4.30;;
286;SDS011;127;48.770;9.212;2022-07-06T07:58:00;5.70;;;3.33;;
286;SDS011;127;48.770;9.212;2022-07-06T08:00:29;25.10;;;4.20;;
286;SDS011;127;48.770;9.212;2022-07-06T08:02:58;4.53;;;4.20;;
286;SDS011;127;48.770;9.212;2022-07-06T08:05:27;9.30;;;4.67;;
286;SDS011;127;48.770;9.212;2022-07-06T08:07:56;7.00;;;4.23;;
286;SDS011;127;48.770;9.212;2022-07-06T08:10:27;10.13;;;4.50;;
286;SDS011;127;48.770;9.212;2022-07-06T08:12:56;14.33;;;4.43;;
286;SDS011;127;48.770;9.212;2022-07-06T08:15:27;10.20;;;4.50;;
286;SDS011;127;48.770;9.212;2022-07-06T08:17:56;6.80;;;4.23;;
286;SDS011;127;48.770;9.212;2022-07-06T08:20:25;7.73;;;4.67;;
286;SDS011;127;48.770;9.212;2022-07-06T08:22:54;12.53;;;4.90;;
286;SDS011;127;48.770;9.212;2022-07-06T08:25:23;13.00;;;4.67;;
286;SDS011;127;48.770;9.212;2022-07-06T08:27:52;8.53;;;4.37;;
286;SDS011;127;48.770;9.212;2022-07-06T08:30:20;9.33;;;4.10;;
286;SDS011;127;48.770;9.212;2022-07-06T08:32:52;6.20;;;3.63;;
286;SDS011;127;48.770;9.212;2022-07-06T08:35:20;7.23;;;4.30;;
286;SDS011;127;48.770;9.212;2022-07-06T08:37:49;10.03;;;4.37;;
286;SDS011;127;48.770;9.212;2022-07-06T08:40:17;7.43;;;4.73;;
286;SDS011;127;48.770;9.212;2022-07-06T08:42:46;8.80;;;4.57;;
286;SDS011;127;48.770;9.212;2022-07-06T08:45:19;9.10;;;4.70;;
286;SDS011;127;48.770;9.212;2022-07-06T08:47:48;10.77;;;5.00;;
286;SDS011;127;48.770;9.212;2022-07-06T08:50:21;8.23;;;4.33;;
286;SDS011;127;48.770;9.212;2022-07-06T08:52:51;14.50;;;3.80;;
286;SDS011;127;48.770;9.212;2022-07-06T08:55:20;7.47;;;4.37;;
286;SDS011;127;48.770;9.212;2022-07-06T08:57:49;8.60;;;4.73;;
286;SDS011;127;48.770;9.212;2022-07-06T09:00:19;9.90;;;4.63;;
286;SDS011;127;48.770;9.212;2022-07-06T09:02:48;8.20;;;4.30;;
286;SDS011;127;48.770;9.212;2022-07-06T09:05:24;6.97;;;3.83;;
286;SDS011;127;48.770;9.212;2022-07-06T09:07:53;8.23;;;3.70;;
286;SDS011;127;48.770;9.212;2022-07-06T09:10:22;11.23;;;4.10;;
286;SDS011;127;48.770;9.212;2022-07-06T09:12:51;8.80;;;4.50;;
286;SDS011;127;48.770;9.212;2022-07-06T09:15:23;7.40;;;3.80;;
286;SDS011;127;48.770;9.212;2022-07-06T09:17:56;6.20;;;4.13;;
286;SDS011;127;48.770;9.212;2022-07-06T09:20:27;12.50;;;4.90;;
286;SDS011;127;48.770;9.212;2022-07-06T09:22:57;9.57;;;3.40;;
286;SDS011;127;48.770;9.212;2022-07-06T09:25:27;8.57;;;3.97;;
286;SDS011;127;48.770;9.212;2022-07-06T09:27:56;9.50;;;4.40;;
286;SDS011;127;48.770;9.212;2022-07-06T09:30:27;12.47;;;5.00;;
286;SDS011;127;48.770;9.212;2022-07-06T09:32:57;6.70;;;3.20;;
286;SDS011;127;48.770;9.212;2022-07-06T09:35:29;4.27;;;3.13;;
286;SDS011;127;48.770;9.212;2022-07-06T09:38:00;9.23;;;4.10;;
286;SDS011;127;48.770;9.212;2022-07-06T09:40:31;9.10;;;3.63;;
286;SDS011;127;48.770;9.212;2022-07-06T09:43:10;8.80;;;3.40;;
286;SDS011;127;48.770;9.212;2022-07-06T09:45:40;7.33;;;3.50;;
286;SDS011;127;48.770;9.212;2022-07-06T09:48:11;6.47;;;3.07;;
286;SDS011;127;48.770;9.212;2022-07-06T09:50:46;5.80;;;3.27;;
286;SDS011;127;48.770;9.212;2022-07-06T09:53:16;15.37;;;3.90;;
286;SDS011;127;48.770;9.212;2022-07-06T09:55:46;8.90;;;3.63;;
286;SDS011;127;48.770;9.212;2022-07-06T09:58:16;4.97;;;3.00;;
286;SDS011;127;48.770;9.212;2022-07-06T10:00:46;14.07;;;3.43;;
286;SDS011;127;48.770;9.212;2022-07-06T10:03:17;5.80;;;3.40;;
286;SDS011;127;48.770;9.212;2022-07-06T10:05:48;7.67;;;3.37;;
286;SDS011;127;48.770;9.212;2022-07-06T10:08:17;5.13;;;3.53;;
286;SDS011;127;48.770;9.212;2022-07-06T10:10:47;9.40;;;3.83;;
286;SDS011;127;48.770;9.212;2022-07-06T10:13:19;6.57;;;3.43;;
286;SDS011;127;48.770;9.212;2022-07-06T10:15:49;7.00;;;4.50;;
286;SDS011;127;48.770;9.212;2022-07-06T10:18:19;6.23;;;3.90;;
286;SDS011;127;48.770;9.212;2022-07-06T10:20:51;5.80;;;4.10;;
286;SDS011;127;48.770;9.212;2022-07-06T10:23:20;8.03;;;3.73;;
286;SDS011;127;48.770;9.212;2022-07-06T10:25:51;5.07;;;3.87;;
286;SDS011;127;48.770;9.212;2022-07-06T10:28:20;6.27;;;3.80;;
286;SDS011;127;48.770;9.212;2022-07-06T10:30:51;5.53;;;3.30;;
286;SDS011;127;48.770;9.212;2022-07-06T10:33:20;8.25;;;3.50;;
286;SDS011;127;48.770;9.212;2022-07-06T10:35:52;8.77;;;3.60;;
286;SDS011;127;48.770;9.212;2022-07-06T10:38:30;5.87;;;3.30;;
286;SDS011;127;48.770;9.212;2022-07-06T10:41:02;8.10;;;3.50;;
286;SDS011;127;48.770;9.212;2022-07-06T10:43:32;8.13;;;4.20;;
286;SDS011;127;48.770;9.212;2022-07-06T10:46:07;10.53;;;3.50;;
286;SDS011;127;48.770;9.212;2022-07-06T10:48:38;13.23;;;4.00;;
286;SDS011;127;48.770;9.212;2022-07-06T10:51:13;5.50;;;3.47;;
286;SDS011;127;48.770;9.212;2022-07-06T10:53:55;9.57;;;4.00;;
286;SDS011;127;48.770;9.212;2022-07-06T10:56:31;7.17;;;3.40;;
286;SDS011;127;48.770;9.212;2022-07-06T10:59:02;8.60;;;3.73;;
286;SDS011;127;48.770;9.212;2022-07-06T11:01:36;6.90;;;3.80;;
286;SDS011;127;48.770;9.212;2022-07-06T11:04:05;5.60;;;3.43;;
286;SDS011;127;48.770;9.212;2022-07-06T11:06:38;10.03;;;4.27;;
286;SDS011;127;48.770;9.212;2022-07-06T11:09:08;6.80;;;3.77;;
286;SDS011;127;48.770;9.212;2022-07-06T11:11:42;6.70;;;3.57;;
286;SDS011;127;48.770;9.212;2022-07-06T11:14:14;6.80;;;3.43;;
286;SDS011;127;48.770;9.212;2022-07-06T11:16:59;7.67;;;3.37;;
286;SDS011;127;48.770;9.212;2022-07-06T11:19:30;7.10;;;3.97;;
286;SDS011;127;48.770;9.212;2022-07-06T11:22:07;6.87;;;4.10;;
286;SDS011;127;48.770;9.212;2022-07-06T11:24:55;8.80;;;4.10;;
286;SDS011;127;48.770;9.212;2022-07-06T11:27:24;8.70;;;4.40;;
286;SDS011;127;48.770;9.212;2022-07-06T11:29:54;8.93;;;3.90;;
286;SDS011;127;48.770;9.212;2022-07-06T11:32:38;9.77;;;3.60;;
286;SDS011;127;48.770;9.212;2022-07-06T11:35:07;4.90;;;3.90;;
286;SDS011;127;48.770;9.212;2022-07-06T11:38:03;7.70;;;3.60;;
286;SDS011;127;48.770;9.212;2022-07-06T11:41:20;10.77;;;4.20;;
286;SDS011;127;48.770;9.212;2022-07-06T11:43:58;4.50;;;3.40;;
286;SDS011;127;48.770;9.212;2022-07-06T11:49:48;10.93;;;4.10;;
286;SDS011;127;48.770;9.212;2022-07-06T11:52:35;6.63;;;3.50;;
286;SDS011;127;48.770;9.212;2022-07-06T11:55:16;7.67;;;4.10;;
286;SDS011;127;48.770;9.212;2022-07-06T11:57:59;8.80;;;3.63;;
286;SDS011;127;48.770;9.212;2022-07-06T12:00:33;8.90;;;4.03;;
286;SDS011;127;48.770;9.212;2022-07-06T12:03:18;7.93;;;3.40;;
286;SDS011;127;48.770;9.212;2022-07-06T12:06:02;5.90;;;3.33;;
286;SDS011;127;48.770;9.212;2022-07-06T12:12:17;6.30;;;3.63;;
286;SDS011;127;48.770;9.212;2022-07-06T12:15:26;5.33;;;3.50;;
286;SDS011;127;48.770;9.212;2022-07-06T12:18:04;15.10;;;4.17;;
286;SDS011;127;48.770;9.212;2022-07-06T12:20:38;5.83;;;3.10;;
286;SDS011;127;48.770;9.212;2022-07-06T12:23:12;16.37;;;4.10;;
286;SDS011;127;48.770;9.212;2022-07-06T12:25:45;8.23;;;3.70;;
286;SDS011;127;48.770;9.212;2022-07-06T12:28:30;8.47;;;4.50;;
286;SDS011;127;48.770;9.212;2022-07-06T12:31:02;8.00;;;3.63;;
286;SDS011;127;48.770;9.212;2022-07-06T12:33:55;7.43;;;3.90;;
286;SDS011;127;48.770;9.212;2022-07-06T12:36:27;8.53;;;4.03;;
286;SDS011;127;48.770;9.212;2022-07-06T12:38:56;6.73;;;4.20;;
286;SDS011;127;48.770;9.212;2022-07-06T12:41:25;8.30;;;4.77;;
286;SDS011;127;48.770;9.212;2022-07-06T12:44:15;7.00;;;3.70;;
286;SDS011;127;48.770;9.212;2022-07-06T12:46:47;14.40;;;4.43;;
286;SDS011;127;48.770;9.212;2022-07-06T12:49:23;7.63;;;3.53;;
286;SDS011;127;48.770;9.212;2022-07-06T12:51:52;9.03;;;3.00;;
286;SDS011;127;48.770;9.212;2022-07-06T12:54:29;9.93;;;4.10;;
286;SDS011;127;48.770;9.212;2022-07-06T12:57:03;5.87;;;3.03;;
286;SDS011;127;48.770;9.212;2022-07-06T12:59:44;7.23;;;3.63;;
286;SDS011;127;48.770;9.212;2022-07-06T13:02:19;9.03;;;3.00;;
286;SDS011;127;48.770;9.212;2022-07-06T13:04:55;6.53;;;3.47;;
286;SDS011;127;48.770;9.212;2022-07-06T13:07:26;9.10;;;3.23;;
286;SDS011;127;48.770;9.212;2022-07-06T13:09:57;9.87;;;2.73;;
286;SDS011;127;48.770;9.212;2022-07-06T13:12:26;7.80;;;3.50;;
286;SDS011;127;48.770;9.212;2022-07-06T13:14:57;5.57;;;3.73;;
286;SDS011;127;48.770;9.212;2022-07-06T13:17:26;6.23;;;4.23;;
286;SDS011;127;48.770;9.212;2022-07-06T13:19:58;9.57;;;4.10;;
286;SDS011;127;48.770;9.212;2022-07-06T13:22:28;5.63;;;3.10;;
286;SDS011;127;48.770;9.212;2022-07-06T13:24:57;10.10;;;3.90;;
286;SDS011;127;48.770;9.212;2022-07-06T13:27:26;6.00;;;3.53;;
286;SDS011;127;48.770;9.212;2022-07-06T13:30:00;10.23;;;3.50;;
286;SDS011;127;48.770;9.212;2022-07-06T13:32:32;4.13;;;3.00;;
286;SDS011;127;48.770;9.212;2022-07-06T13:35:12;6.77;;;3.53;;
286;SDS011;127;48.770;9.212;2022-07-06T13:37:42;5.23;;;3.63;;
286;SDS011;127;48.770;9.212;2022-07-06T13:40:12;5.70;;;3.20;;
286;SDS011;127;48.770;9.212;2022-07-06T13:42:41;11.23;;;3.23;;
286;SDS011;127;48.770;9.212;2022-07-06T13:45:13;6.07;;;3.77;;
286;SDS011;127;48.770;9.212;2022-07-06T13:47:44;8.07;;;3.10;;
286;SDS011;127;48.770;9.212;2022-07-06T13:50:18;5.33;;;3.23;;
286;SDS011;127;48.770;9.212;2022-07-06T13:52:47;8.97;;;4.03;;
286;SDS011;127;48.770;9.212;2022-07-06T13:55:16;8.20;;;3.67;;
286;SDS011;127;48.770;9.212;2022-07-06T13:57:45;10.67;;;3.60;;
286;SDS011;127;48.770;9.212;2022-07-06T14:00:17;8.80;;;3.40;;
286;SDS011;127;48.770;9.212;2022-07-06T14:02:46;7.60;;;2.97;;
286;SDS011;127;48.770;9.212;2022-07-06T14:05:15;6.27;;;3.17;;
286;SDS011;127;48.770;9.212;2022-07-06T14:07:43;5.40;;;3.00;;
286;SDS011;127;48.770;9.212;2022-07-06T14:10:12;5.97;;;3.40;;
286;SDS011;127;48.770;9.212;2022-07-06T14:12:41;3.67;;;3.40;;
286;SDS011;127;48.770;9.212;2022-07-06T14:15:09;4.60;;;3.40;;
286;SDS011;127;48.770;9.212;2022-07-06T14:17:41;10.20;;;4.00;;
286;SDS011;127;48.770;9.212;2022-07-06T14:20:10;6.23;;;3.10;;
286;SDS011;127;48.770;9.212;2022-07-06T14:22:39;9.30;;;3.90;;
286;SDS011;127;48.770;9.212;2022-07-06T14:25:08;14.93;;;3.50;;
286;SDS011;127;48.770;9.212;2022-07-06T14:27:37;3.63;;;3.40;;
286;SDS011;127;48.770;9.212;2022-07-06T14:30:06;6.10;;;3.13;;
286;SDS011;127;48.770;9.212;2022-07-06T14:32:36;3.20;;;2.80;;
286;SDS011;127;48.770;9.212;2022-07-06T14:35:07;3.37;;;2.60;;
286;SDS011;127;48.770;9.212;2022-07-06T14:37:36;3.40;;;2.90;;
286;SDS011;127;48.770;9.212;2022-07-06T14:40:05;7.73;;;3.83;;
286;SDS011;127;48.770;9.212;2022-07-06T14:42:34;5.00;;;2.87;;
286;SDS011;127;48.770;9.212;2022-07-06T14:45:03;5.10;;;3.07;;
286;SDS011;127;48.770;9.212;2022-07-06T14:47:33;4.73;;;2.83;;
286;SDS011;127;48.770;9.212;2022-07-06T14:50:01;8.37;;;2.80;;
286;SDS011;127;48.770;9.212;2022-07-06T14:52:33;6.73;;;3.10;;
286;SDS011;127;48.770;9.212;2022-07-06T14:55:02;7.20;;;3.27;;
286;SDS011;127;48.770;9.212;2022-07-06T14:57:31;6.33;;;3.20;;
286;SDS011;127;48.770;9.212;2022-07-06T15:00:00;4.33;;;2.67;;
286;SDS011;127;48.770;9.212;2022-07-06T15:02:30;6.70;;;3.13;;
286;SDS011;127;48.770;9.212;2022-07-06T15:04:58;5.40;;;2.67;;
286;SDS011;127;48.770;9.212;2022-07-06T15:07:27;5.60;;;2.57;;
286;SDS011;127;48.770;9.212;2022-07-06T15:09:59;6.57;;;2.80;;
286;SDS011;127;48.770;9.212;2022-07-06T15:12:27;6.83;;;3.30;;
286;SDS011;127;48.770;9.212;2022-07-06T15:14:58;5.43;;;2.80;;
286;SDS011;127;48.770;9.212;2022-07-06T15:17:27;6.43;;;2.30;;
286;SDS011;127;48.770;9.212;2022-07-06T15:19:56;4.70;;;2.60;;
286;SDS011;127;48.770;9.212;2022-07-06T15:22:25;8.00;;;3.20;;
286;SDS011;127;48.770;9.212;2022-07-06T15:24:54;5.67;;;3.00;;
286;SDS011;127;48.770;9.212;2022-07-06T15:27:26;5.87;;;3.57;;
286;SDS011;127;48.770;9.212;2022-07-06T15:29:54;4.13;;;2.50;;
286;SDS011;127;48.770;9.212;2022-07-06T15:32:23;7.17;;;2.60;;
286;SDS011;127;48.770;9.212;2022-07-06T15:34:52;5.20;;;2.60;;
286;SDS011;127;48.770;9.212;2022-07-06T15:37:22;3.90;;;3.00;;
286;SDS011;127;48.770;9.212;2022-07-06T15:39:50;5.53;;;2.60;;
286;SDS011;127;48.770;9.212;2022-07-06T15:42:19;3.37;;;2.47;;
286;SDS011;127;48.770;9.212;2022-07-06T15:44:52;4.57;;;3.20;;
286;SDS011;127;48.770;9.212;2022-07-06T15:47:20;7.50;;;2.50;;
286;SDS011;127;48.770;9.212;2022-07-06T15:49:50;4.00;;;2.57;;
286;SDS011;127;48.770;9.212;2022-07-06T15:52:19;3.70;;;2.30;;
286;SDS011;127;48.770;9.212;2022-07-06T15:54:48;8.23;;;3.03;;
286;SDS011;127;48.770;9.212;2022-07-06T15:57:17;6.80;;;3.00;;
286;SDS011;127;48.770;9.212;2022-07-06T15:59:45;5.67;;;2.57;;
286;SDS011;127;48.770;9.212;2022-07-06T16:02:17;4.73;;;2.43;;
286;SDS011;127;48.770;9.212;2022-07-06T16:04:45;6.27;;;2.87;;
286;SDS011;127;48.770;9.212;2022-07-06T16:07:14;9.70;;;3.30;;
286;SDS011;127;48.770;9.212;2022-07-06T16:09:43;4.23;;;2.77;;
286;SDS011;127;48.770;9.212;2022-07-06T16:12:11;3.80;;;2.70;;